Time;durP1;ratioP1;P1;durP2;ratioP2;P2;SDS_P1;SDS_P2;PMS_P1;PMS_P2;Temp;Humidity;BMP_temperature;BMP_pressure;BME280_temperature;BME280_humidity;BME280_pressure;Samples;Min_cycle;Max_cycle;Signal;HPM_P1;HPM_P2
2023/08/01 00:01:10;;;;;;;8.07;3.55;;;17.20;88.00;;;;;;5010959;28;20076;-77
2023/08/01 00:03:37;;;;;;;9.95;3.97;;;17.10;88.10;;;;;;5010689;28;20051;-77
2023/08/01 00:06:04;;;;;;;11.27;4.25;;;17.10;88.00;;;;;;5006479;28;20046;-77
2023/08/01 00:08:31;;;;;;;8.93;3.97;;;17.10;88.00;;;;;;5010706;28;20046;-77
2023/08/01 00:10:58;;;;;;;10.45;4.32;;;17.00;88.00;;;;;;5010643;28;20251;-77
2023/08/01 00:13:25;;;;;;;10.43;4.03;;;17.00;88.10;;;;;;5011116;28;20843;-77
2023/08/01 00:15:53;;;;;;;9.50;4.38;;;17.00;88.20;;;;;;4994408;28;20084;-78
2023/08/01 00:18:20;;;;;;;10.82;4.68;;;17.00;88.20;;;;;;5010894;28;20121;-77
2023/08/01 00:20:47;;;;;;;11.60;4.93;;;17.00;88.30;;;;;;5001849;28;20059;-77
2023/08/01 00:23:16;;;;;;;10.02;4.43;;;17.00;88.40;;;;;;5007709;28;20308;-77
2023/08/01 00:25:43;;;;;;;9.48;4.75;;;17.00;88.50;;;;;;5009429;28;20051;-77
2023/08/01 00:28:10;;;;;;;12.35;4.68;;;17.00;88.50;;;;;;5012205;28;20137;-77
2023/08/01 00:30:37;;;;;;;8.57;4.40;;;17.00;88.50;;;;;;5010271;28;20046;-77
2023/08/01 00:33:05;;;;;;;11.60;4.67;;;17.00;88.60;;;;;;5010387;28;20058;-77
2023/08/01 00:35:33;;;;;;;11.18;4.95;;;17.00;88.60;;;;;;5026887;28;20712;-78
2023/08/01 00:38:01;;;;;;;13.52;4.70;;;17.00;88.60;;;;;;4993824;28;20056;-77
2023/08/01 00:40:31;;;;;;;9.88;4.18;;;17.00;88.60;;;;;;5009797;28;20050;-77
2023/08/01 00:42:58;;;;;;;10.63;4.90;;;16.90;88.50;;;;;;4988393;28;20125;-77
2023/08/01 00:45:25;;;;;;;9.70;4.90;;;16.90;88.60;;;;;;4989584;28;20515;-77
2023/08/01 00:47:54;;;;;;;10.48;4.72;;;16.90;88.70;;;;;;4993611;28;20274;-77
2023/08/01 00:50:24;;;;;;;10.90;5.30;;;16.90;88.70;;;;;;5009655;28;20047;-77
2023/08/01 00:52:52;;;;;;;10.57;4.78;;;16.90;88.70;;;;;;5009982;28;20061;-77
2023/08/01 00:55:20;;;;;;;10.68;4.88;;;16.90;88.70;;;;;;4993704;28;20129;-77
2023/08/01 00:57:47;;;;;;;13.47;5.30;;;16.80;88.70;;;;;;4990177;28;20519;-77
2023/08/01 01:00:15;;;;;;;13.45;5.35;;;16.90;88.80;;;;;;5009523;28;20675;-77
2023/08/01 01:02:42;;;;;;;11.57;5.00;;;16.80;88.70;;;;;;4993412;28;20141;-77
2023/08/01 01:05:09;;;;;;;12.25;5.25;;;16.80;88.70;;;;;;5009916;28;20808;-77
2023/08/01 01:07:38;;;;;;;12.57;5.40;;;16.80;88.70;;;;;;5003313;28;20162;-78
2023/08/01 01:10:06;;;;;;;12.00;5.63;;;16.80;88.70;;;;;;4991559;28;20554;-77
2023/08/01 01:12:33;;;;;;;11.02;4.93;;;16.80;88.80;;;;;;4993218;28;20369;-77
2023/08/01 01:15:00;;;;;;;9.75;3.97;;;16.80;88.80;;;;;;4991423;28;20057;-77
2023/08/01 01:17:27;;;;;;;11.93;4.30;;;16.80;88.90;;;;;;4993189;28;20046;-77
2023/08/01 01:19:55;;;;;;;11.52;4.53;;;16.80;88.90;;;;;;5007861;28;20046;-77
2023/08/01 01:22:23;;;;;;;12.90;4.90;;;16.70;88.80;;;;;;5005854;28;20057;-77
2023/08/01 01:24:51;;;;;;;9.45;4.35;;;16.70;89.00;;;;;;5009708;28;20345;-77
2023/08/01 01:27:19;;;;;;;11.20;5.13;;;16.70;89.10;;;;;;5006084;28;20503;-77
2023/08/01 01:29:48;;;;;;;8.02;3.05;;;16.70;89.20;;;;;;5009630;28;20548;-77
2023/08/01 01:32:15;;;;;;;9.15;3.83;;;16.70;89.20;;;;;;5010506;28;20148;-77
2023/08/01 01:34:42;;;;;;;10.50;4.27;;;16.70;89.00;;;;;;5009280;28;20129;-77
2023/08/01 01:37:10;;;;;;;10.23;4.40;;;16.70;88.70;;;;;;5007891;28;20349;-77
2023/08/01 01:39:38;;;;;;;11.98;3.92;;;16.70;88.80;;;;;;5009200;28;20050;-77
2023/08/01 01:42:06;;;;;;;8.63;3.15;;;16.60;88.70;;;;;;5008340;28;20054;-78
2023/08/01 01:44:34;;;;;;;8.48;3.20;;;16.60;88.70;;;;;;4991935;28;20535;-78
2023/08/01 01:47:01;;;;;;;8.63;3.07;;;16.60;88.70;;;;;;5003957;28;20070;-77
2023/08/01 01:49:29;;;;;;;11.30;3.67;;;16.60;88.50;;;;;;5009242;28;20276;-77
2023/08/01 01:51:56;;;;;;;8.80;2.95;;;16.60;88.40;;;;;;5008919;28;20054;-77
2023/08/01 01:54:23;;;;;;;10.82;2.67;;;16.60;88.30;;;;;;5007844;28;20606;-77
2023/08/01 01:56:52;;;;;;;10.20;2.80;;;16.60;88.30;;;;;;5009215;28;20057;-77
2023/08/01 01:59:19;;;;;;;9.87;2.87;;;16.60;88.40;;;;;;4992946;28;20133;-77
2023/08/01 02:01:46;;;;;;;7.13;2.50;;;16.60;88.20;;;;;;4992352;28;20277;-77
2023/08/01 02:04:13;;;;;;;9.45;2.75;;;16.50;88.10;;;;;;5009083;28;20058;-77
2023/08/01 02:06:40;;;;;;;7.43;2.10;;;16.50;88.00;;;;;;5024144;28;20062;-77
2023/08/01 02:09:08;;;;;;;8.05;2.85;;;16.50;87.80;;;;;;5023971;28;20065;-77
2023/08/01 02:11:36;;;;;;;6.70;2.37;;;16.50;87.70;;;;;;5007096;28;20046;-77
2023/08/01 02:14:05;;;;;;;7.45;2.72;;;16.50;87.70;;;;;;5008745;28;20250;-77
2023/08/01 02:16:32;;;;;;;7.82;2.67;;;16.40;87.70;;;;;;5007835;28;20098;-77
2023/08/01 02:18:59;;;;;;;8.20;2.67;;;16.50;87.60;;;;;;5006098;28;20832;-77
2023/08/01 02:21:26;;;;;;;9.38;3.08;;;16.40;87.70;;;;;;5023196;28;20062;-77
2023/08/01 02:23:53;;;;;;;8.67;2.57;;;16.40;87.60;;;;;;5008983;28;20976;-77
2023/08/01 02:26:22;;;;;;;8.98;2.70;;;16.40;87.50;;;;;;5025342;28;20341;-78
2023/08/01 02:28:49;;;;;;;7.78;2.97;;;16.40;87.50;;;;;;5005689;28;20062;-78
2023/08/01 02:31:18;;;;;;;6.20;2.50;;;16.40;87.60;;;;;;5005241;28;20113;-77
2023/08/01 02:33:45;;;;;;;7.80;2.53;;;16.40;87.60;;;;;;5010206;28;20133;-78
2023/08/01 02:36:12;;;;;;;9.33;3.20;;;16.40;87.50;;;;;;5009734;28;20065;-77
2023/08/01 02:38:40;;;;;;;10.25;3.53;;;16.40;87.50;;;;;;4994004;28;20810;-78
2023/08/01 02:41:07;;;;;;;7.35;3.58;;;16.40;87.50;;;;;;5008391;28;20158;-78
2023/08/01 02:43:36;;;;;;;8.73;4.07;;;16.40;87.50;;;;;;4992543;28;20504;-77
2023/08/01 02:46:05;;;;;;;10.77;4.65;;;16.40;87.50;;;;;;5023876;28;20141;-78
2023/08/01 02:48:35;;;;;;;9.33;4.23;;;16.40;87.50;;;;;;5008292;28;20160;-77
2023/08/01 02:51:02;;;;;;;12.02;4.65;;;16.40;87.60;;;;;;4993460;28;21080;-77
2023/08/01 02:53:29;;;;;;;11.07;4.85;;;16.40;87.70;;;;;;5024940;28;20116;-78
2023/08/01 02:55:56;;;;;;;10.82;4.60;;;16.40;87.80;;;;;;5008148;28;20049;-77
2023/08/01 02:58:23;;;;;;;9.75;4.75;;;16.40;87.90;;;;;;5008251;28;20049;-77
2023/08/01 03:00:51;;;;;;;10.30;4.70;;;16.40;87.90;;;;;;5021466;28;20148;-77
2023/08/01 03:03:18;;;;;;;11.23;4.00;;;16.30;88.10;;;;;;4991196;28;20770;-78
2023/08/01 03:05:47;;;;;;;10.80;4.38;;;16.40;88.10;;;;;;5015807;28;20614;-77
2023/08/01 03:08:14;;;;;;;10.82;4.28;;;16.30;88.20;;;;;;5008903;28;20062;-77
2023/08/01 03:10:41;;;;;;;9.23;3.40;;;16.40;88.20;;;;;;5007190;28;20062;-78
2023/08/01 03:13:08;;;;;;;8.20;3.60;;;16.30;88.20;;;;;;5004578;28;20142;-77
2023/08/01 03:15:35;;;;;;;11.98;3.65;;;16.30;88.20;;;;;;5018484;28;20278;-78
2023/08/01 03:18:11;;;;;;;9.40;4.15;;;16.30;88.20;;;;;;5007681;28;20125;-78
2023/08/01 03:20:38;;;;;;;9.60;3.97;;;16.30;88.20;;;;;;4994277;28;20991;-78
2023/08/01 03:23:06;;;;;;;11.30;3.67;;;16.20;88.20;;;;;;5003833;28;20050;-77
2023/08/01 03:25:33;;;;;;;13.60;3.23;;;16.20;88.20;;;;;;5007156;28;20057;-77
2023/08/01 03:28:00;;;;;;;7.43;2.58;;;16.20;88.30;;;;;;5008533;28;20257;-77
2023/08/01 03:30:28;;;;;;;4.95;1.48;;;16.20;88.50;;;;;;5007539;28;20050;-77
2023/08/01 03:32:55;;;;;;;4.40;1.02;;;16.20;88.20;;;;;;5006276;28;20050;-77
2023/08/01 03:35:23;;;;;;;3.63;0.93;;;16.10;87.80;;;;;;5006655;28;20101;-76
2023/08/01 03:37:50;;;;;;;5.47;0.97;;;16.00;87.50;;;;;;4986769;28;20503;-77
2023/08/01 03:40:19;;;;;;;2.65;0.50;;;16.00;86.90;;;;;;5002543;28;20282;-77
2023/08/01 03:42:46;;;;;;;4.18;0.73;;;15.90;86.60;;;;;;5007422;28;20070;-77
2023/08/01 03:45:13;;;;;;;3.78;0.85;;;15.80;86.80;;;;;;5001727;28;20050;-77
2023/08/01 03:47:40;;;;;;;4.18;1.00;;;15.80;87.00;;;;;;5006982;28;20046;-76
2023/08/01 03:50:08;;;;;;;4.47;0.90;;;15.70;87.10;;;;;;5008098;28;20057;-77
2023/08/01 03:52:35;;;;;;;4.30;1.10;;;15.60;87.30;;;;;;5001383;28;20257;-77
2023/08/01 03:55:02;;;;;;;3.15;0.95;;;15.60;87.30;;;;;;5006767;28;20056;-77
2023/08/01 03:57:33;;;;;;;3.60;0.95;;;15.60;87.50;;;;;;4987498;28;20922;-77
2023/08/01 04:00:00;;;;;;;4.40;0.98;;;15.60;87.50;;;;;;5007912;28;20937;-77
2023/08/01 04:02:27;;;;;;;3.80;0.80;;;15.60;87.30;;;;;;4987764;28;20576;-76
2023/08/01 04:04:54;;;;;;;3.45;0.65;;;15.60;87.20;;;;;;5006449;28;20314;-77
2023/08/01 04:07:21;;;;;;;3.75;0.80;;;15.60;87.20;;;;;;4989900;28;20053;-77
2023/08/01 04:09:48;;;;;;;4.10;0.75;;;15.60;87.20;;;;;;5015366;28;20574;-77
2023/08/01 04:12:15;;;;;;;2.70;0.60;;;15.60;87.10;;;;;;5005370;28;20046;-77
2023/08/01 04:14:43;;;;;;;4.03;0.70;;;15.50;87.10;;;;;;4999952;28;20054;-77
2023/08/01 04:17:10;;;;;;;4.45;0.82;;;15.50;87.10;;;;;;5003941;28;20256;-76
2023/08/01 04:19:37;;;;;;;3.63;0.60;;;15.50;87.10;;;;;;5007878;28;20054;-77
2023/08/01 04:22:04;;;;;;;2.25;0.50;;;15.50;86.90;;;;;;5006491;28;20054;-76
2023/08/01 04:24:31;;;;;;;2.75;0.65;;;15.50;86.90;;;;;;5003418;28;20050;-77
2023/08/01 04:26:58;;;;;;;4.67;0.73;;;15.50;86.80;;;;;;5006429;28;20057;-76
2023/08/01 04:29:25;;;;;;;3.10;0.75;;;15.50;86.80;;;;;;5004439;28;20282;-77
2023/08/01 04:31:53;;;;;;;3.40;0.63;;;15.50;86.90;;;;;;5007102;28;20061;-77
2023/08/01 04:34:20;;;;;;;2.92;0.70;;;15.50;86.90;;;;;;5006827;28;20047;-77
2023/08/01 04:36:47;;;;;;;3.80;0.73;;;15.50;86.90;;;;;;5003927;28;20057;-77
2023/08/01 04:39:14;;;;;;;5.43;1.00;;;15.50;86.90;;;;;;5014022;28;20052;-76
2023/08/01 04:41:41;;;;;;;4.97;0.90;;;15.50;86.90;;;;;;5006375;28;20401;-77
2023/08/01 04:44:07;;;;;;;5.03;1.00;;;15.40;87.00;;;;;;5008978;28;20516;-77
2023/08/01 04:46:34;;;;;;;4.43;1.00;;;15.50;87.00;;;;;;5010559;28;20178;-77
2023/08/01 04:49:02;;;;;;;4.82;0.90;;;15.50;86.90;;;;;;5009264;28;20065;-77
2023/08/01 04:51:29;;;;;;;4.17;0.70;;;15.40;87.00;;;;;;5008006;28;20193;-77
2023/08/01 04:53:56;;;;;;;4.25;0.70;;;15.40;86.90;;;;;;5007856;28;20626;-77
2023/08/01 04:56:23;;;;;;;4.18;0.70;;;15.40;87.00;;;;;;5008775;28;20133;-77
2023/08/01 04:58:50;;;;;;;3.75;0.70;;;15.40;86.90;;;;;;5010920;28;20541;-77
2023/08/01 05:01:17;;;;;;;4.65;0.70;;;15.40;87.00;;;;;;5005258;28;20145;-77
2023/08/01 05:03:44;;;;;;;3.50;0.60;;;15.40;87.00;;;;;;4991948;28;20058;-77
2023/08/01 05:06:13;;;;;;;4.28;0.70;;;15.40;87.20;;;;;;5003578;28;20262;-77
2023/08/01 05:08:40;;;;;;;3.30;0.68;;;15.40;87.10;;;;;;5009568;28;20050;-78
2023/08/01 05:11:08;;;;;;;4.22;1.00;;;15.40;87.30;;;;;;5010584;28;20058;-77
2023/08/01 05:13:35;;;;;;;4.65;0.98;;;15.40;87.30;;;;;;5009425;28;20046;-77
2023/08/01 05:16:03;;;;;;;3.53;0.80;;;15.40;87.50;;;;;;5007250;28;20058;-77
2023/08/01 05:18:30;;;;;;;5.10;1.10;;;15.40;87.50;;;;;;5009177;28;21009;-77
2023/08/01 05:20:57;;;;;;;3.85;1.10;;;15.40;87.70;;;;;;5006982;28;20076;-77
2023/08/01 05:23:25;;;;;;;3.65;0.70;;;15.40;87.90;;;;;;5008431;28;20137;-77
2023/08/01 05:25:52;;;;;;;4.15;1.00;;;15.40;87.90;;;;;;5005025;28;20080;-77
2023/08/01 05:28:19;;;;;;;3.60;1.00;;;15.40;88.00;;;;;;5007067;28;20042;-77
2023/08/01 05:30:46;;;;;;;3.75;0.90;;;15.50;88.20;;;;;;5006743;28;20242;-78
2023/08/01 05:33:13;;;;;;;5.22;0.90;;;15.50;88.40;;;;;;5007998;28;20042;-77
2023/08/01 05:35:40;;;;;;;4.75;0.90;;;15.50;88.50;;;;;;5010183;28;20225;-77
2023/08/01 05:38:07;;;;;;;6.28;1.10;;;15.50;88.40;;;;;;5007391;28;20054;-77
2023/08/01 05:40:35;;;;;;;5.10;1.30;;;15.50;88.50;;;;;;5006856;28;20058;-77
2023/08/01 05:43:04;;;;;;;5.05;1.10;;;15.50;88.70;;;;;;5006267;28;20246;-77
2023/08/01 05:45:31;;;;;;;4.75;1.00;;;15.50;88.90;;;;;;5003211;28;20047;-77
2023/08/01 05:47:58;;;;;;;3.90;1.20;;;15.50;88.90;;;;;;5002504;28;20946;-77
2023/08/01 05:50:24;;;;;;;3.75;1.00;;;15.60;88.80;;;;;;5007356;28;20046;-77
2023/08/01 05:52:51;;;;;;;4.27;0.90;;;15.60;89.00;;;;;;5005399;28;20745;-77
2023/08/01 05:55:18;;;;;;;6.05;1.10;;;15.50;89.00;;;;;;5003735;28;20687;-77
2023/08/01 05:57:48;;;;;;;5.32;1.13;;;15.60;89.20;;;;;;5004673;28;20057;-77
2023/08/01 06:00:16;;;;;;;4.90;1.02;;;15.60;89.20;;;;;;4989023;28;20141;-77
2023/08/01 06:02:43;;;;;;;4.13;1.02;;;15.60;89.30;;;;;;5004973;28;20051;-77
2023/08/01 06:05:11;;;;;;;4.60;1.30;;;15.60;89.40;;;;;;5005926;28;20054;-77
2023/08/01 06:07:38;;;;;;;3.70;1.00;;;15.60;89.40;;;;;;5021917;28;20664;-77
2023/08/01 06:10:06;;;;;;;4.63;1.10;;;15.60;89.40;;;;;;5008859;28;20064;-77
2023/08/01 06:12:32;;;;;;;4.63;1.20;;;15.60;89.40;;;;;;5007820;28;20050;-77
2023/08/01 06:15:01;;;;;;;3.83;0.88;;;15.60;89.30;;;;;;5007262;28;20071;-77
2023/08/01 06:17:28;;;;;;;3.07;1.00;;;15.60;89.20;;;;;;5007720;28;20057;-77
2023/08/01 06:19:55;;;;;;;4.57;0.90;;;15.60;89.00;;;;;;5006489;28;20270;-77
2023/08/01 06:22:22;;;;;;;3.85;0.80;;;15.60;89.00;;;;;;4991052;28;20050;-77
2023/08/01 06:24:49;;;;;;;4.93;1.08;;;15.60;89.00;;;;;;4990151;28;20885;-77
2023/08/01 06:27:17;;;;;;;5.10;1.17;;;15.60;88.90;;;;;;5004719;28;20058;-77
2023/08/01 06:29:44;;;;;;;4.17;0.80;;;15.60;89.00;;;;;;5005837;28;20129;-77
2023/08/01 06:32:13;;;;;;;4.22;1.00;;;15.60;88.90;;;;;;5005355;28;20333;-77
2023/08/01 06:34:40;;;;;;;3.10;0.90;;;15.60;89.00;;;;;;5004111;28;20050;-77
2023/08/01 06:37:07;;;;;;;3.38;0.90;;;15.70;89.00;;;;;;5018158;28;20050;-77
2023/08/01 06:39:34;;;;;;;4.35;0.63;;;15.70;89.00;;;;;;5005995;28;20504;-77
2023/08/01 06:42:01;;;;;;;4.27;0.63;;;15.70;88.90;;;;;;5003339;28;20138;-77
2023/08/01 06:44:28;;;;;;;4.78;1.00;;;15.70;88.90;;;;;;5008503;28;21188;-77
2023/08/01 06:46:55;;;;;;;4.65;0.90;;;15.70;88.70;;;;;;5007165;28;20061;-77
2023/08/01 06:49:24;;;;;;;4.75;0.90;;;15.70;88.70;;;;;;5008181;28;20129;-77
2023/08/01 06:51:51;;;;;;;4.15;0.90;;;15.80;88.80;;;;;;5002985;28;20043;-77
2023/08/01 06:54:18;;;;;;;4.70;0.80;;;15.80;88.70;;;;;;5003205;28;20050;-77
2023/08/01 06:56:47;;;;;;;4.75;1.10;;;15.80;88.80;;;;;;5001787;28;20714;-77
2023/08/01 06:59:14;;;;;;;4.32;1.13;;;15.80;88.60;;;;;;5005412;28;21015;-77
2023/08/01 07:01:43;;;;;;;3.97;0.70;;;15.80;88.10;;;;;;5004946;28;20066;-77
2023/08/01 07:04:10;;;;;;;2.58;0.65;;;15.80;88.20;;;;;;5005281;28;20054;-77
2023/08/01 07:06:39;;;;;;;4.57;1.00;;;15.80;88.10;;;;;;5005404;28;20576;-77
2023/08/01 07:09:06;;;;;;;4.43;1.00;;;15.90;88.20;;;;;;5007290;28;20247;-77
2023/08/01 07:11:33;;;;;;;4.25;0.95;;;15.90;88.40;;;;;;5008708;28;20050;-77
2023/08/01 07:14:00;;;;;;;4.68;1.15;;;16.00;88.60;;;;;;5005962;28;20046;-77
2023/08/01 07:16:27;;;;;;;4.70;0.90;;;16.00;88.50;;;;;;5005668;28;20054;-77
2023/08/01 07:18:55;;;;;;;4.03;1.00;;;16.00;88.50;;;;;;5002569;28;20054;-77
2023/08/01 07:21:22;;;;;;;5.78;1.00;;;16.00;88.60;;;;;;5003824;28;20338;-77
2023/08/01 07:23:50;;;;;;;6.28;1.17;;;16.10;88.70;;;;;;5002381;28;20770;-77
2023/08/01 07:26:17;;;;;;;4.70;1.40;;;16.10;88.40;;;;;;5001952;28;20687;-77
2023/08/01 07:28:44;;;;;;;4.50;0.75;;;16.20;88.40;;;;;;5006746;28;20447;-79
2023/08/01 07:31:11;;;;;;;4.33;0.90;;;16.20;88.40;;;;;;5006323;28;20137;-77
2023/08/01 07:33:43;;;;;;;6.50;0.85;;;16.20;88.00;;;;;;5006049;28;20325;-75
2023/08/01 07:36:09;;;;;;;5.05;1.05;;;16.20;87.80;;;;;;5000614;28;20050;-77
2023/08/01 07:38:37;;;;;;;4.78;0.95;;;16.20;87.60;;;;;;5003552;28;20051;-78
2023/08/01 07:41:07;;;;;;;3.80;0.90;;;16.20;87.50;;;;;;5017748;28;20138;-78
2023/08/01 07:43:34;;;;;;;4.33;0.97;;;16.20;87.50;;;;;;5005398;28;20543;-78
2023/08/01 07:46:01;;;;;;;6.10;1.10;;;16.20;87.70;;;;;;5005189;28;20368;-78
2023/08/01 07:48:28;;;;;;;5.78;1.00;;;16.30;87.70;;;;;;5005879;28;20056;-78
2023/08/01 07:50:55;;;;;;;5.97;1.08;;;16.30;87.60;;;;;;5006499;28;20516;-78
2023/08/01 07:53:22;;;;;;;4.88;1.00;;;16.30;87.50;;;;;;5003892;28;20053;-78
2023/08/01 07:55:49;;;;;;;4.60;0.97;;;16.30;87.60;;;;;;5005047;28;20560;-77
2023/08/01 07:58:18;;;;;;;7.53;0.93;;;16.30;87.50;;;;;;5006822;28;20265;-77
2023/08/01 08:00:45;;;;;;;6.55;1.40;;;16.30;87.30;;;;;;5006047;28;20567;-77
2023/08/01 08:03:11;;;;;;;6.68;1.13;;;16.30;87.20;;;;;;5006877;28;20062;-77
2023/08/01 08:05:39;;;;;;;5.88;1.20;;;16.20;87.20;;;;;;5007878;28;20062;-77
2023/08/01 08:08:09;;;;;;;4.57;0.97;;;16.20;87.40;;;;;;5000213;28;20144;-77
2023/08/01 08:10:36;;;;;;;4.95;1.15;;;16.10;87.70;;;;;;5006148;28;20356;-76
2023/08/01 08:13:03;;;;;;;5.05;1.02;;;16.10;87.90;;;;;;5005275;28;20046;-77
2023/08/01 08:15:34;;;;;;;4.55;1.10;;;16.10;88.00;;;;;;5006428;28;20129;-77
2023/08/01 08:18:04;;;;;;;5.03;1.13;;;16.10;88.20;;;;;;5004653;28;20054;-76
2023/08/01 08:20:31;;;;;;;4.07;0.80;;;16.10;88.20;;;;;;5009066;28;20058;-77
2023/08/01 08:22:58;;;;;;;6.20;1.20;;;16.10;87.70;;;;;;5010266;28;20259;-76
2023/08/01 08:25:25;;;;;;;5.38;1.30;;;16.00;87.50;;;;;;5004758;28;20038;-76
2023/08/01 08:27:52;;;;;;;4.35;1.33;;;16.00;87.70;;;;;;5007389;28;20053;-76
2023/08/01 08:30:19;;;;;;;5.05;1.00;;;16.00;87.80;;;;;;5008937;28;20054;-76
2023/08/01 08:32:48;;;;;;;3.90;0.93;;;16.00;87.90;;;;;;5010416;28;20538;-77
2023/08/01 08:35:15;;;;;;;4.18;0.80;;;16.00;88.10;;;;;;5007863;28;20274;-76
2023/08/01 08:37:42;;;;;;;4.22;0.95;;;16.00;88.30;;;;;;5007618;28;20057;-76
2023/08/01 08:40:10;;;;;;;4.38;1.33;;;15.90;88.30;;;;;;5008070;28;20527;-76
2023/08/01 08:42:37;;;;;;;5.40;1.30;;;15.90;88.50;;;;;;5004444;28;20516;-77
2023/08/01 08:45:06;;;;;;;5.10;1.40;;;15.90;88.70;;;;;;5008836;28;20051;-77
2023/08/01 08:47:39;;;;;;;4.80;1.35;;;15.90;88.70;;;;;;5007830;28;20273;-76
2023/08/01 08:50:08;;;;;;;6.82;1.50;;;15.90;88.80;;;;;;5009946;28;20057;-76
2023/08/01 08:52:35;;;;;;;5.38;1.52;;;15.90;88.90;;;;;;5010793;28;20398;-76
2023/08/01 08:55:03;;;;;;;8.18;1.73;;;15.90;88.90;;;;;;5009648;28;20056;-76
2023/08/01 08:57:31;;;;;;;5.97;1.67;;;15.90;89.20;;;;;;5006860;28;20054;-76
2023/08/01 09:00:00;;;;;;;7.90;2.35;;;15.90;89.30;;;;;;5008628;28;20255;-76
2023/08/01 09:02:28;;;;;;;7.28;1.67;;;15.90;89.30;;;;;;5009801;28;20134;-76
2023/08/01 09:04:55;;;;;;;5.18;1.55;;;15.90;89.40;;;;;;5007401;28;20554;-75
2023/08/01 09:07:27;;;;;;;6.88;1.75;;;15.90;89.40;;;;;;5008385;28;20051;-76
2023/08/01 09:09:54;;;;;;;4.53;1.50;;;15.90;89.50;;;;;;5004264;28;20137;-76
2023/08/01 09:12:22;;;;;;;7.70;1.90;;;15.90;89.70;;;;;;5009613;28;20262;-77
2023/08/01 09:14:51;;;;;;;5.97;1.60;;;15.90;89.80;;;;;;5003387;28;20085;-76
2023/08/01 09:17:18;;;;;;;8.73;2.30;;;15.90;89.90;;;;;;5003551;28;20261;-76
2023/08/01 09:19:45;;;;;;;8.50;2.22;;;15.90;89.90;;;;;;5004892;28;20055;-76
2023/08/01 09:22:12;;;;;;;7.63;1.70;;;15.90;90.00;;;;;;5008197;28;20058;-76
2023/08/01 09:24:52;;;;;;;7.13;1.92;;;16.00;90.00;;;;;;5002095;28;20286;-76
2023/08/01 09:27:21;;;;;;;9.98;2.08;;;16.00;89.80;;;;;;5003076;28;20133;-76
2023/08/01 09:29:48;;;;;;;7.05;1.50;;;16.00;89.90;;;;;;5003426;28;20056;-76
2023/08/01 09:32:15;;;;;;;5.72;1.85;;;16.00;89.70;;;;;;5005473;28;20054;-76
2023/08/01 09:34:43;;;;;;;7.00;1.90;;;16.00;89.40;;;;;;5007383;28;20141;-77
2023/08/01 09:37:10;;;;;;;3.70;1.13;;;15.90;89.50;;;;;;5003384;28;20262;-76
2023/08/01 09:39:37;;;;;;;4.80;1.48;;;15.90;89.60;;;;;;5007833;28;20053;-76
2023/08/01 09:42:06;;;;;;;5.03;1.50;;;15.90;89.50;;;;;;5007751;28;20056;-76
2023/08/01 09:44:36;;;;;;;6.22;2.55;;;15.90;89.70;;;;;;5006609;28;20069;-76
2023/08/01 09:47:04;;;;;;;4.63;1.20;;;16.00;90.00;;;;;;5009319;28;20137;-76
2023/08/01 09:49:32;;;;;;;5.97;1.40;;;16.00;90.50;;;;;;5006573;28;20384;-75
2023/08/01 09:52:01;;;;;;;6.40;1.35;;;16.00;90.60;;;;;;4999269;28;20160;-76
2023/08/01 09:54:28;;;;;;;3.80;1.05;;;16.00;90.60;;;;;;5002490;28;20141;-76
2023/08/01 09:56:56;;;;;;;5.05;1.27;;;16.10;90.50;;;;;;5004313;28;20058;-77
2023/08/01 09:59:25;;;;;;;4.23;1.00;;;16.10;90.20;;;;;;5006140;28;20057;-80
2023/08/01 10:01:58;;;;;;;5.97;1.55;;;16.20;89.70;;;;;;5008646;28;20258;-78
2023/08/01 10:04:28;;;;;;;3.88;1.52;;;16.20;89.90;;;;;;5011699;28;20058;-77
2023/08/01 10:06:58;;;;;;;4.55;1.40;;;16.30;89.80;;;;;;5001377;28;20110;-77
2023/08/01 10:09:26;;;;;;;6.32;1.42;;;16.40;90.10;;;;;;5005720;28;20868;-77
2023/08/01 10:11:53;;;;;;;2.50;0.90;;;16.40;90.00;;;;;;5006129;28;20058;-77
2023/08/01 10:14:21;;;;;;;5.80;1.48;;;16.40;89.70;;;;;;5003388;28;20763;-77
2023/08/01 10:16:50;;;;;;;4.57;1.30;;;16.50;89.40;;;;;;5008312;28;20050;-76
2023/08/01 10:19:18;;;;;;;4.47;1.23;;;16.60;89.00;;;;;;5007470;28;20057;-77
2023/08/01 10:21:47;;;;;;;6.20;1.50;;;16.60;88.20;;;;;;5006708;28;20487;-78
2023/08/01 10:24:15;;;;;;;4.70;1.23;;;16.60;87.90;;;;;;5003672;28;20055;-78
2023/08/01 10:26:45;;;;;;;5.00;1.40;;;16.60;88.00;;;;;;5005765;28;21066;-78
2023/08/01 10:29:11;;;;;;;4.75;1.30;;;16.60;88.00;;;;;;5005580;28;20056;-77
2023/08/01 10:31:38;;;;;;;4.75;1.38;;;16.50;88.10;;;;;;5021355;28;20138;-77
2023/08/01 10:34:13;;;;;;;7.20;1.42;;;16.60;87.70;;;;;;4989184;28;20130;-74
2023/08/01 10:36:40;;;;;;;5.57;1.50;;;16.50;87.80;;;;;;5006915;28;20059;-77
2023/08/01 10:39:07;;;;;;;6.35;1.70;;;16.50;88.00;;;;;;5008617;28;20254;-77
2023/08/01 10:41:36;;;;;;;5.45;1.30;;;16.50;88.30;;;;;;5003675;28;20097;-78
2023/08/01 10:44:08;;;;;;;5.35;1.17;;;16.50;88.20;;;;;;5005934;28;20058;-75
2023/08/01 10:46:49;;;;;;;6.68;1.48;;;16.50;88.20;;;;;;5004241;28;20074;-76
2023/08/01 10:49:18;;;;;;;6.53;1.47;;;16.50;88.50;;;;;;5002770;28;20137;-76
2023/08/01 10:51:46;;;;;;;5.80;1.30;;;16.50;88.50;;;;;;5004288;28;20272;-75
2023/08/01 10:54:21;;;;;;;4.95;1.17;;;16.50;88.90;;;;;;5004022;28;20054;-76
2023/08/01 10:56:50;;;;;;;4.38;0.98;;;16.60;89.50;;;;;;5007817;28;20062;-74
2023/08/01 10:59:18;;;;;;;4.68;1.10;;;16.70;89.40;;;;;;5004285;28;20125;-77
2023/08/01 11:01:46;;;;;;;8.33;1.57;;;16.70;88.80;;;;;;5005816;28;20166;-76
2023/08/01 11:04:19;;;;;;;2.92;0.88;;;16.70;88.50;;;;;;5003024;28;21280;-78
2023/08/01 11:06:47;;;;;;;6.45;1.50;;;16.80;88.40;;;;;;5002453;28;20042;-76
2023/08/01 11:09:19;;;;;;;4.82;1.00;;;16.80;88.90;;;;;;5005075;28;20061;-76
2023/08/01 11:11:48;;;;;;;5.53;1.25;;;16.90;88.90;;;;;;5005931;28;20141;-77
2023/08/01 11:14:16;;;;;;;8.90;1.90;;;16.90;89.30;;;;;;5005374;28;20054;-77
2023/08/01 11:16:44;;;;;;;5.68;1.20;;;17.00;89.50;;;;;;5004584;28;20266;-76
2023/08/01 11:19:23;;;;;;;6.30;1.20;;;17.10;89.10;;;;;;5005831;28;20050;-77
2023/08/01 11:21:51;;;;;;;6.65;1.10;;;17.20;87.60;;;;;;5007785;28;20058;-75
2023/08/01 11:24:20;;;;;;;6.05;1.40;;;17.20;86.70;;;;;;5010385;28;20046;-74
2023/08/01 11:26:49;;;;;;;6.37;1.30;;;17.20;85.00;;;;;;5002406;28;20047;-76
2023/08/01 11:29:17;;;;;;;9.15;2.15;;;17.20;85.60;;;;;;5007697;28;21239;-78
2023/08/01 11:31:53;;;;;;;9.52;1.88;;;17.20;85.90;;;;;;5011113;28;20645;-75
2023/08/01 11:34:22;;;;;;;6.07;1.48;;;17.20;86.60;;;;;;5006254;28;20080;-76
2023/08/01 11:36:49;;;;;;;8.05;1.73;;;17.30;87.00;;;;;;5004918;28;20053;-75
2023/08/01 11:39:17;;;;;;;6.33;1.13;;;17.30;86.40;;;;;;5004757;28;20053;-75
2023/08/01 11:41:44;;;;;;;2.95;0.68;;;17.20;86.20;;;;;;5008027;28;20304;-76
2023/08/01 11:44:13;;;;;;;6.57;1.17;;;17.20;85.90;;;;;;5005797;28;20050;-78
2023/08/01 11:46:41;;;;;;;4.20;0.93;;;17.20;86.10;;;;;;5007351;28;20050;-75
2023/08/01 11:49:09;;;;;;;2.88;0.70;;;17.20;86.20;;;;;;5004206;28;20050;-74
2023/08/01 11:51:44;;;;;;;3.03;0.90;;;17.20;85.00;;;;;;5005707;28;20078;-75
2023/08/01 11:54:13;;;;;;;4.80;0.82;;;17.30;84.20;;;;;;5005313;28;20278;-75
2023/08/01 11:56:41;;;;;;;4.75;1.00;;;17.30;83.30;;;;;;5002192;28;21004;-74
2023/08/01 11:59:10;;;;;;;3.40;0.70;;;17.20;82.90;;;;;;5009467;28;20393;-76
2023/08/01 12:01:40;;;;;;;5.70;1.20;;;17.10;83.20;;;;;;5011461;28;20056;-74
2023/08/01 12:04:07;;;;;;;3.40;1.20;;;17.00;84.10;;;;;;5007203;28;20058;-74
2023/08/01 12:06:36;;;;;;;4.70;0.98;;;16.90;85.00;;;;;;5008385;28;20337;-75
2023/08/01 12:09:11;;;;;;;4.10;0.80;;;16.90;84.20;;;;;;5007713;28;20061;-78
2023/08/01 12:11:39;;;;;;;5.18;0.98;;;16.80;84.10;;;;;;5008857;28;20202;-77
2023/08/01 12:14:09;;;;;;;4.32;0.90;;;16.80;84.50;;;;;;5005612;28;20793;-76
2023/08/01 12:16:37;;;;;;;3.23;0.80;;;16.80;84.80;;;;;;5021598;28;20508;-76
2023/08/01 12:19:05;;;;;;;4.15;0.90;;;16.80;85.20;;;;;;5007210;28;20682;-76
2023/08/01 12:21:33;;;;;;;4.43;0.95;;;16.90;85.90;;;;;;5010151;28;20149;-76
2023/08/01 12:24:00;;;;;;;5.50;1.02;;;16.90;85.90;;;;;;5006533;28;20122;-75
2023/08/01 12:26:29;;;;;;;3.78;0.73;;;17.00;86.50;;;;;;5007699;28;20625;-77
2023/08/01 12:28:56;;;;;;;3.83;1.13;;;17.00;87.40;;;;;;5006600;28;20050;-75
2023/08/01 12:31:23;;;;;;;5.88;1.30;;;17.10;85.90;;;;;;5010666;28;20259;-74
2023/08/01 12:33:52;;;;;;;4.22;1.23;;;17.20;85.40;;;;;;5007109;28;20628;-75
2023/08/01 12:36:19;;;;;;;4.28;0.90;;;17.20;84.40;;;;;;5004991;28;20137;-74
2023/08/01 12:38:46;;;;;;;3.58;0.80;;;17.20;84.80;;;;;;5006966;28;20054;-76
2023/08/01 12:41:13;;;;;;;3.50;0.80;;;17.20;85.10;;;;;;5005887;28;20145;-73
2023/08/01 12:43:42;;;;;;;4.53;1.15;;;17.20;84.10;;;;;;5006571;28;20290;-74
2023/08/01 12:46:09;;;;;;;4.90;1.00;;;17.10;84.00;;;;;;5009246;28;20058;-75
2023/08/01 12:48:36;;;;;;;4.88;0.93;;;17.00;83.50;;;;;;5005699;28;20620;-76